sensor_id;sensor_type;location;lat;lon;timestamp;temperature;humidity
74384;DHT22;62824;52.994;-3.936;2023-09-12T00:01:04;16.20;99.90
74384;DHT22;62824;52.994;-3.936;2023-09-12T00:03:31;16.30;99.90
74384;DHT22;62824;52.994;-3.936;2023-09-12T00:05:58;16.20;99.90
74384;DHT22;62824;52.994;-3.936;2023-09-12T00:08:24;16.10;99.90
74384;DHT22;62824;52.994;-3.936;2023-09-12T00:11:19;16.10;99.90
74384;DHT22;62824;52.994;-3.936;2023-09-12T00:13:45;16.20;99.90
74384;DHT22;62824;52.994;-3.936;2023-09-12T00:16:11;16.00;99.90
74384;DHT22;62824;52.994;-3.936;2023-09-12T00:18:37;16.10;99.90
74384;DHT22;62824;52.994;-3.936;2023-09-12T00:21:04;16.10;99.90
74384;DHT22;62824;52.994;-3.936;2023-09-12T00:23:29;16.10;99.90
74384;DHT22;62824;52.994;-3.936;2023-09-12T00:25:57;16.10;99.90
74384;DHT22;62824;52.994;-3.936;2023-09-12T00:28:23;16.10;99.90
74384;DHT22;62824;52.994;-3.936;2023-09-12T00:30:49;16.10;99.90
74384;DHT22;62824;52.994;-3.936;2023-09-12T00:33:15;16.10;99.90
74384;DHT22;62824;52.994;-3.936;2023-09-12T00:35:41;16.10;99.90
74384;DHT22;62824;52.994;-3.936;2023-09-12T00:38:09;15.90;99.90
74384;DHT22;62824;52.994;-3.936;2023-09-12T00:40:34;16.00;99.90
74384;DHT22;62824;52.994;-3.936;2023-09-12T00:43:00;16.00;99.90
74384;DHT22;62824;52.994;-3.936;2023-09-12T00:45:26;16.00;99.90
74384;DHT22;62824;52.994;-3.936;2023-09-12T00:47:53;16.10;99.90
74384;DHT22;62824;52.994;-3.936;2023-09-12T00:50:20;16.20;99.90
74384;DHT22;62824;52.994;-3.936;2023-09-12T00:52:48;16.30;99.90
74384;DHT22;62824;52.994;-3.936;2023-09-12T00:55:14;16.20;99.90
74384;DHT22;62824;52.994;-3.936;2023-09-12T00:57:40;16.10;99.90
74384;DHT22;62824;52.994;-3.936;2023-09-12T01:00:07;16.00;99.90
74384;DHT22;62824;52.994;-3.936;2023-09-12T01:02:46;16.00;99.90
74384;DHT22;62824;52.994;-3.936;2023-09-12T01:05:13;15.90;99.90
74384;DHT22;62824;52.994;-3.936;2023-09-12T01:07:43;15.90;99.90
74384;DHT22;62824;52.994;-3.936;2023-09-12T01:10:09;16.00;99.90
74384;DHT22;62824;52.994;-3.936;2023-09-12T01:12:36;16.00;99.90
74384;DHT22;62824;52.994;-3.936;2023-09-12T01:15:02;16.00;99.90
74384;DHT22;62824;52.994;-3.936;2023-09-12T01:17:31;16.10;99.90
74384;DHT22;62824;52.994;-3.936;2023-09-12T01:19:57;16.10;99.90
74384;DHT22;62824;52.994;-3.936;2023-09-12T01:22:56;16.20;99.90
74384;DHT22;62824;52.994;-3.936;2023-09-12T01:28:37;16.20;99.90
74384;DHT22;62824;52.994;-3.936;2023-09-12T01:31:05;16.30;99.90
74384;DHT22;62824;52.994;-3.936;2023-09-12T01:33:31;16.40;99.90
74384;DHT22;62824;52.994;-3.936;2023-09-12T01:35:56;16.40;99.90
74384;DHT22;62824;52.994;-3.936;2023-09-12T01:38:22;16.40;99.90
74384;DHT22;62824;52.994;-3.936;2023-09-12T01:40:50;16.40;99.90
74384;DHT22;62824;52.994;-3.936;2023-09-12T01:43:19;16.40;99.90
74384;DHT22;62824;52.994;-3.936;2023-09-12T01:45:52;16.40;99.90
74384;DHT22;62824;52.994;-3.936;2023-09-12T01:48:20;16.40;99.90
74384;DHT22;62824;52.994;-3.936;2023-09-12T01:50:46;16.40;99.90
74384;DHT22;62824;52.994;-3.936;2023-09-12T01:53:12;16.40;99.90
74384;DHT22;62824;52.994;-3.936;2023-09-12T01:55:41;16.30;99.90
74384;DHT22;62824;52.994;-3.936;2023-09-12T01:58:07;16.40;99.90
74384;DHT22;62824;52.994;-3.936;2023-09-12T02:00:34;16.30;99.90
74384;DHT22;62824;52.994;-3.936;2023-09-12T02:03:01;16.10;99.90
74384;DHT22;62824;52.994;-3.936;2023-09-12T02:05:27;16.00;99.90
74384;DHT22;62824;52.994;-3.936;2023-09-12T02:07:52;16.00;99.90
74384;DHT22;62824;52.994;-3.936;2023-09-12T02:10:18;15.90;99.90
74384;DHT22;62824;52.994;-3.936;2023-09-12T02:12:44;16.00;99.90
74384;DHT22;62824;52.994;-3.936;2023-09-12T02:15:10;15.90;99.90
74384;DHT22;62824;52.994;-3.936;2023-09-12T02:17:36;15.90;99.90
74384;DHT22;62824;52.994;-3.936;2023-09-12T02:20:06;15.70;99.90
74384;DHT22;62824;52.994;-3.936;2023-09-12T02:22:32;15.70;99.90
74384;DHT22;62824;52.994;-3.936;2023-09-12T02:24:57;15.70;99.90
74384;DHT22;62824;52.994;-3.936;2023-09-12T02:27:23;15.70;99.90
74384;DHT22;62824;52.994;-3.936;2023-09-12T02:29:49;15.80;99.90
74384;DHT22;62824;52.994;-3.936;2023-09-12T02:32:14;15.70;99.90
74384;DHT22;62824;52.994;-3.936;2023-09-12T02:34:40;15.50;99.90
74384;DHT22;62824;52.994;-3.936;2023-09-12T02:37:06;15.40;99.90
74384;DHT22;62824;52.994;-3.936;2023-09-12T02:39:32;15.30;99.90
74384;DHT22;62824;52.994;-3.936;2023-09-12T02:41:57;15.30;99.90
74384;DHT22;62824;52.994;-3.936;2023-09-12T02:44:23;15.30;99.90
74384;DHT22;62824;52.994;-3.936;2023-09-12T02:46:50;15.30;99.90
74384;DHT22;62824;52.994;-3.936;2023-09-12T02:49:16;15.20;99.90
74384;DHT22;62824;52.994;-3.936;2023-09-12T02:51:42;15.10;99.90
74384;DHT22;62824;52.994;-3.936;2023-09-12T02:54:08;15.10;99.90
74384;DHT22;62824;52.994;-3.936;2023-09-12T02:56:33;15.10;99.90
74384;DHT22;62824;52.994;-3.936;2023-09-12T02:58:59;15.10;99.90
74384;DHT22;62824;52.994;-3.936;2023-09-12T03:01:25;15.10;99.90
74384;DHT22;62824;52.994;-3.936;2023-09-12T03:03:54;15.00;99.90
74384;DHT22;62824;52.994;-3.936;2023-09-12T03:06:20;15.00;99.90
74384;DHT22;62824;52.994;-3.936;2023-09-12T03:08:47;15.00;99.90
74384;DHT22;62824;52.994;-3.936;2023-09-12T03:11:13;15.00;99.90
74384;DHT22;62824;52.994;-3.936;2023-09-12T03:13:40;15.00;99.90
74384;DHT22;62824;52.994;-3.936;2023-09-12T03:16:13;14.90;99.90
74384;DHT22;62824;52.994;-3.936;2023-09-12T03:18:39;15.00;99.90
74384;DHT22;62824;52.994;-3.936;2023-09-12T03:21:05;15.10;99.90
74384;DHT22;62824;52.994;-3.936;2023-09-12T03:23:31;15.10;99.90
74384;DHT22;62824;52.994;-3.936;2023-09-12T03:26:02;15.00;99.90
74384;DHT22;62824;52.994;-3.936;2023-09-12T03:28:29;14.90;99.90
74384;DHT22;62824;52.994;-3.936;2023-09-12T03:31:05;14.90;99.90
74384;DHT22;62824;52.994;-3.936;2023-09-12T03:33:31;14.80;99.90
74384;DHT22;62824;52.994;-3.936;2023-09-12T03:35:57;14.90;99.90
74384;DHT22;62824;52.994;-3.936;2023-09-12T03:38:22;14.80;99.90
74384;DHT22;62824;52.994;-3.936;2023-09-12T03:40:48;14.80;99.90
74384;DHT22;62824;52.994;-3.936;2023-09-12T03:43:14;14.80;99.90
74384;DHT22;62824;52.994;-3.936;2023-09-12T03:45:40;14.80;99.90
74384;DHT22;62824;52.994;-3.936;2023-09-12T03:48:05;14.80;99.90
74384;DHT22;62824;52.994;-3.936;2023-09-12T03:50:31;14.80;99.90
74384;DHT22;62824;52.994;-3.936;2023-09-12T03:52:57;14.80;99.90
74384;DHT22;62824;52.994;-3.936;2023-09-12T03:55:23;14.80;99.90
74384;DHT22;62824;52.994;-3.936;2023-09-12T03:57:48;14.80;99.90
74384;DHT22;62824;52.994;-3.936;2023-09-12T04:00:15;14.80;99.90
74384;DHT22;62824;52.994;-3.936;2023-09-12T04:02:40;14.80;99.90
74384;DHT22;62824;52.994;-3.936;2023-09-12T04:05:07;14.80;99.90
74384;DHT22;62824;52.994;-3.936;2023-09-12T04:07:32;14.80;99.90
74384;DHT22;62824;52.994;-3.936;2023-09-12T04:09:58;14.80;99.90
74384;DHT22;62824;52.994;-3.936;2023-09-12T04:12:24;14.80;99.90
74384;DHT22;62824;52.994;-3.936;2023-09-12T04:14:50;14.80;99.90
74384;DHT22;62824;52.994;-3.936;2023-09-12T04:17:20;14.80;99.90
74384;DHT22;62824;52.994;-3.936;2023-09-12T04:19:46;14.90;99.90
74384;DHT22;62824;52.994;-3.936;2023-09-12T04:22:12;14.90;99.90
74384;DHT22;62824;52.994;-3.936;2023-09-12T04:24:37;14.80;99.90
74384;DHT22;62824;52.994;-3.936;2023-09-12T04:27:03;14.70;99.90
74384;DHT22;62824;52.994;-3.936;2023-09-12T04:29:31;14.70;99.90
74384;DHT22;62824;52.994;-3.936;2023-09-12T04:31:57;14.70;99.90
74384;DHT22;62824;52.994;-3.936;2023-09-12T04:34:25;14.70;99.90
74384;DHT22;62824;52.994;-3.936;2023-09-12T04:36:52;14.60;99.90
74384;DHT22;62824;52.994;-3.936;2023-09-12T04:39:18;14.60;99.90
74384;DHT22;62824;52.994;-3.936;2023-09-12T04:41:43;14.50;99.90
74384;DHT22;62824;52.994;-3.936;2023-09-12T04:44:11;14.50;99.90
74384;DHT22;62824;52.994;-3.936;2023-09-12T04:46:37;14.50;99.90
74384;DHT22;62824;52.994;-3.936;2023-09-12T04:49:03;14.50;99.90
74384;DHT22;62824;52.994;-3.936;2023-09-12T04:51:29;14.60;99.90
74384;DHT22;62824;52.994;-3.936;2023-09-12T04:53:54;14.50;99.90
74384;DHT22;62824;52.994;-3.936;2023-09-12T04:56:21;14.50;99.90
74384;DHT22;62824;52.994;-3.936;2023-09-12T04:58:49;14.50;99.90
74384;DHT22;62824;52.994;-3.936;2023-09-12T05:01:15;14.50;99.90
74384;DHT22;62824;52.994;-3.936;2023-09-12T05:03:42;14.50;99.90
74384;DHT22;62824;52.994;-3.936;2023-09-12T05:06:08;14.50;99.90
74384;DHT22;62824;52.994;-3.936;2023-09-12T05:08:33;14.50;99.90
74384;DHT22;62824;52.994;-3.936;2023-09-12T05:10:59;14.50;99.90
74384;DHT22;62824;52.994;-3.936;2023-09-12T05:13:25;14.50;99.90
74384;DHT22;62824;52.994;-3.936;2023-09-12T05:15:51;14.40;99.90
74384;DHT22;62824;52.994;-3.936;2023-09-12T05:18:17;14.40;99.90
74384;DHT22;62824;52.994;-3.936;2023-09-12T05:20:42;14.40;99.90
74384;DHT22;62824;52.994;-3.936;2023-09-12T05:23:08;14.30;99.90
74384;DHT22;62824;52.994;-3.936;2023-09-12T05:25:34;14.30;99.90
74384;DHT22;62824;52.994;-3.936;2023-09-12T05:27:59;14.20;99.90
74384;DHT22;62824;52.994;-3.936;2023-09-12T05:30:28;14.20;99.90
74384;DHT22;62824;52.994;-3.936;2023-09-12T05:32:54;14.20;99.90
74384;DHT22;62824;52.994;-3.936;2023-09-12T05:35:19;14.10;99.90
74384;DHT22;62824;52.994;-3.936;2023-09-12T05:37:45;14.20;99.90
74384;DHT22;62824;52.994;-3.936;2023-09-12T05:40:11;14.20;99.90
74384;DHT22;62824;52.994;-3.936;2023-09-12T05:42:36;14.20;99.90
74384;DHT22;62824;52.994;-3.936;2023-09-12T05:45:02;14.20;99.90
74384;DHT22;62824;52.994;-3.936;2023-09-12T05:47:28;14.10;99.90
74384;DHT22;62824;52.994;-3.936;2023-09-12T05:49:54;14.10;99.90
74384;DHT22;62824;52.994;-3.936;2023-09-12T05:52:19;14.20;99.90
74384;DHT22;62824;52.994;-3.936;2023-09-12T05:54:45;14.10;99.90
74384;DHT22;62824;52.994;-3.936;2023-09-12T05:57:11;14.00;99.90
74384;DHT22;62824;52.994;-3.936;2023-09-12T05:59:38;14.00;99.90
74384;DHT22;62824;52.994;-3.936;2023-09-12T06:02:07;14.00;99.90
74384;DHT22;62824;52.994;-3.936;2023-09-12T06:04:36;14.00;99.90
74384;DHT22;62824;52.994;-3.936;2023-09-12T06:07:03;14.00;99.90
74384;DHT22;62824;52.994;-3.936;2023-09-12T06:09:29;14.00;99.90
74384;DHT22;62824;52.994;-3.936;2023-09-12T06:11:55;14.00;99.90
74384;DHT22;62824;52.994;-3.936;2023-09-12T06:14:21;14.00;99.90
74384;DHT22;62824;52.994;-3.936;2023-09-12T06:16:47;14.10;99.90
74384;DHT22;62824;52.994;-3.936;2023-09-12T06:19:13;14.10;99.90
74384;DHT22;62824;52.994;-3.936;2023-09-12T06:21:40;14.10;99.90
74384;DHT22;62824;52.994;-3.936;2023-09-12T06:24:15;14.10;99.90
74384;DHT22;62824;52.994;-3.936;2023-09-12T06:26:41;14.10;99.90
74384;DHT22;62824;52.994;-3.936;2023-09-12T06:29:07;14.10;99.90
74384;DHT22;62824;52.994;-3.936;2023-09-12T06:31:33;14.10;99.90
74384;DHT22;62824;52.994;-3.936;2023-09-12T06:33:59;14.20;99.90
74384;DHT22;62824;52.994;-3.936;2023-09-12T06:36:25;14.20;99.90
74384;DHT22;62824;52.994;-3.936;2023-09-12T06:38:52;14.20;99.90
74384;DHT22;62824;52.994;-3.936;2023-09-12T06:41:21;14.20;99.90
74384;DHT22;62824;52.994;-3.936;2023-09-12T06:43:46;14.20;99.90
74384;DHT22;62824;52.994;-3.936;2023-09-12T06:46:12;14.20;99.90
74384;DHT22;62824;52.994;-3.936;2023-09-12T06:48:38;14.20;99.90
74384;DHT22;62824;52.994;-3.936;2023-09-12T06:51:09;14.20;99.90
74384;DHT22;62824;52.994;-3.936;2023-09-12T06:53:35;14.20;99.90
74384;DHT22;62824;52.994;-3.936;2023-09-12T06:56:03;14.20;99.90
74384;DHT22;62824;52.994;-3.936;2023-09-12T06:58:29;14.20;99.90
74384;DHT22;62824;52.994;-3.936;2023-09-12T07:00:55;14.30;99.90
74384;DHT22;62824;52.994;-3.936;2023-09-12T07:03:20;14.20;99.90
74384;DHT22;62824;52.994;-3.936;2023-09-12T07:05:46;14.20;99.90
74384;DHT22;62824;52.994;-3.936;2023-09-12T07:08:14;14.30;99.90
74384;DHT22;62824;52.994;-3.936;2023-09-12T07:10:45;14.30;99.90
74384;DHT22;62824;52.994;-3.936;2023-09-12T07:13:11;14.30;99.90
74384;DHT22;62824;52.994;-3.936;2023-09-12T07:15:37;14.30;99.90
74384;DHT22;62824;52.994;-3.936;2023-09-12T07:18:04;14.30;99.90
74384;DHT22;62824;52.994;-3.936;2023-09-12T07:20:35;14.30;99.90
74384;DHT22;62824;52.994;-3.936;2023-09-12T07:23:00;14.20;99.90
74384;DHT22;62824;52.994;-3.936;2023-09-12T07:25:26;14.20;99.90
74384;DHT22;62824;52.994;-3.936;2023-09-12T07:27:52;14.10;99.90
74384;DHT22;62824;52.994;-3.936;2023-09-12T07:30:18;14.10;99.90
74384;DHT22;62824;52.994;-3.936;2023-09-12T07:32:44;14.20;99.90
74384;DHT22;62824;52.994;-3.936;2023-09-12T07:35:10;14.20;99.90
74384;DHT22;62824;52.994;-3.936;2023-09-12T07:37:36;14.20;99.90
74384;DHT22;62824;52.994;-3.936;2023-09-12T07:40:02;14.30;99.90
74384;DHT22;62824;52.994;-3.936;2023-09-12T07:42:35;14.30;99.90
74384;DHT22;62824;52.994;-3.936;2023-09-12T07:45:04;14.30;99.90
74384;DHT22;62824;52.994;-3.936;2023-09-12T07:47:32;14.40;99.90
74384;DHT22;62824;52.994;-3.936;2023-09-12T07:49:57;14.50;99.90
74384;DHT22;62824;52.994;-3.936;2023-09-12T07:52:26;14.50;99.90
74384;DHT22;62824;52.994;-3.936;2023-09-12T07:54:51;14.50;99.90
74384;DHT22;62824;52.994;-3.936;2023-09-12T07:57:23;14.50;99.90
74384;DHT22;62824;52.994;-3.936;2023-09-12T07:59:48;14.60;99.90
74384;DHT22;62824;52.994;-3.936;2023-09-12T08:02:14;14.70;99.90
74384;DHT22;62824;52.994;-3.936;2023-09-12T08:04:40;14.70;99.90
74384;DHT22;62824;52.994;-3.936;2023-09-12T08:07:07;14.70;99.90
74384;DHT22;62824;52.994;-3.936;2023-09-12T08:12:19;14.70;99.90
74384;DHT22;62824;52.994;-3.936;2023-09-12T08:14:45;14.70;99.90
74384;DHT22;62824;52.994;-3.936;2023-09-12T08:17:12;14.70;99.90
74384;DHT22;62824;52.994;-3.936;2023-09-12T08:19:38;14.70;99.90
74384;DHT22;62824;52.994;-3.936;2023-09-12T08:22:05;14.70;99.90
74384;DHT22;62824;52.994;-3.936;2023-09-12T08:24:31;14.70;99.90
74384;DHT22;62824;52.994;-3.936;2023-09-12T08:26:57;14.70;99.90
74384;DHT22;62824;52.994;-3.936;2023-09-12T08:29:23;14.60;99.90
74384;DHT22;62824;52.994;-3.936;2023-09-12T08:31:50;14.60;99.90
74384;DHT22;62824;52.994;-3.936;2023-09-12T08:34:15;14.60;99.90
74384;DHT22;62824;52.994;-3.936;2023-09-12T08:36:41;14.50;99.90
74384;DHT22;62824;52.994;-3.936;2023-09-12T08:39:12;14.60;99.90
74384;DHT22;62824;52.994;-3.936;2023-09-12T08:41:38;14.70;99.90
74384;DHT22;62824;52.994;-3.936;2023-09-12T08:44:04;14.80;99.90
74384;DHT22;62824;52.994;-3.936;2023-09-12T08:46:31;14.80;99.90
74384;DHT22;62824;52.994;-3.936;2023-09-12T08:48:57;14.90;99.90
74384;DHT22;62824;52.994;-3.936;2023-09-12T08:51:32;15.00;99.90
74384;DHT22;62824;52.994;-3.936;2023-09-12T08:53:59;15.10;99.90
74384;DHT22;62824;52.994;-3.936;2023-09-12T08:56:25;15.30;99.90
74384;DHT22;62824;52.994;-3.936;2023-09-12T08:58:51;15.40;99.90
74384;DHT22;62824;52.994;-3.936;2023-09-12T09:01:19;15.40;99.90
74384;DHT22;62824;52.994;-3.936;2023-09-12T09:03:46;15.30;99.90
74384;DHT22;62824;52.994;-3.936;2023-09-12T09:06:13;15.30;99.90
74384;DHT22;62824;52.994;-3.936;2023-09-12T09:08:40;15.40;99.90
74384;DHT22;62824;52.994;-3.936;2023-09-12T09:11:07;15.40;99.90
74384;DHT22;62824;52.994;-3.936;2023-09-12T09:13:33;15.40;99.90
74384;DHT22;62824;52.994;-3.936;2023-09-12T09:19:03;15.80;99.90
74384;DHT22;62824;52.994;-3.936;2023-09-12T09:21:32;15.80;99.90
74384;DHT22;62824;52.994;-3.936;2023-09-12T09:24:00;15.90;99.90
74384;DHT22;62824;52.994;-3.936;2023-09-12T09:26:45;15.90;99.90
74384;DHT22;62824;52.994;-3.936;2023-09-12T09:29:17;16.00;99.90
74384;DHT22;62824;52.994;-3.936;2023-09-12T09:31:44;15.80;99.90
74384;DHT22;62824;52.994;-3.936;2023-09-12T09:34:15;15.90;99.90
74384;DHT22;62824;52.994;-3.936;2023-09-12T09:36:47;16.00;99.90
74384;DHT22;62824;52.994;-3.936;2023-09-12T09:39:13;16.00;99.90
74384;DHT22;62824;52.994;-3.936;2023-09-12T09:41:40;16.30;99.90
74384;DHT22;62824;52.994;-3.936;2023-09-12T09:44:09;16.50;99.90
74384;DHT22;62824;52.994;-3.936;2023-09-12T09:46:37;16.80;99.90
74384;DHT22;62824;52.994;-3.936;2023-09-12T09:49:03;16.60;99.90
74384;DHT22;62824;52.994;-3.936;2023-09-12T09:51:31;16.60;99.90
74384;DHT22;62824;52.994;-3.936;2023-09-12T09:53:57;16.80;99.90
74384;DHT22;62824;52.994;-3.936;2023-09-12T09:56:24;16.90;99.90
74384;DHT22;62824;52.994;-3.936;2023-09-12T10:01:22;17.10;99.90
74384;DHT22;62824;52.994;-3.936;2023-09-12T10:03:50;16.80;99.90
74384;DHT22;62824;52.994;-3.936;2023-09-12T10:06:17;16.70;99.90
74384;DHT22;62824;52.994;-3.936;2023-09-12T10:08:49;16.60;99.90
74384;DHT22;62824;52.994;-3.936;2023-09-12T10:11:16;16.70;99.90
74384;DHT22;62824;52.994;-3.936;2023-09-12T10:13:57;16.70;99.90
74384;DHT22;62824;52.994;-3.936;2023-09-12T10:16:30;16.70;99.90
74384;DHT22;62824;52.994;-3.936;2023-09-12T10:19:16;16.90;99.90
74384;DHT22;62824;52.994;-3.936;2023-09-12T10:21:58;16.90;99.90
74384;DHT22;62824;52.994;-3.936;2023-09-12T10:24:25;16.80;99.90
74384;DHT22;62824;52.994;-3.936;2023-09-12T10:26:52;17.00;99.90
74384;DHT22;62824;52.994;-3.936;2023-09-12T10:29:19;17.20;99.90
74384;DHT22;62824;52.994;-3.936;2023-09-12T10:31:45;17.10;99.90
74384;DHT22;62824;52.994;-3.936;2023-09-12T10:34:13;17.20;99.90
74384;DHT22;62824;52.994;-3.936;2023-09-12T10:36:40;17.00;99.90
74384;DHT22;62824;52.994;-3.936;2023-09-12T10:39:07;16.80;99.90
74384;DHT22;62824;52.994;-3.936;2023-09-12T10:41:35;16.70;99.90
74384;DHT22;62824;52.994;-3.936;2023-09-12T10:44:05;16.60;99.90
74384;DHT22;62824;52.994;-3.936;2023-09-12T10:46:39;16.40;99.90
74384;DHT22;62824;52.994;-3.936;2023-09-12T10:49:09;16.40;99.90
74384;DHT22;62824;52.994;-3.936;2023-09-12T10:51:46;16.40;99.90
74384;DHT22;62824;52.994;-3.936;2023-09-12T10:54:16;16.40;99.90
74384;DHT22;62824;52.994;-3.936;2023-09-12T10:57:05;16.20;99.90
74384;DHT22;62824;52.994;-3.936;2023-09-12T10:59:31;15.90;99.90
74384;DHT22;62824;52.994;-3.936;2023-09-12T11:02:32;15.90;99.90
74384;DHT22;62824;52.994;-3.936;2023-09-12T11:05:00;16.00;99.90
74384;DHT22;62824;52.994;-3.936;2023-09-12T11:12:42;16.20;99.90
74384;DHT22;62824;52.994;-3.936;2023-09-12T11:15:09;16.50;99.90
74384;DHT22;62824;52.994;-3.936;2023-09-12T11:17:41;16.50;99.90
74384;DHT22;62824;52.994;-3.936;2023-09-12T11:20:08;16.50;99.90
74384;DHT22;62824;52.994;-3.936;2023-09-12T11:22:38;16.40;99.90
74384;DHT22;62824;52.994;-3.936;2023-09-12T11:25:24;16.50;99.90
74384;DHT22;62824;52.994;-3.936;2023-09-12T11:30:19;16.60;99.90
74384;DHT22;62824;52.994;-3.936;2023-09-12T11:32:52;16.60;99.90
74384;DHT22;62824;52.994;-3.936;2023-09-12T11:35:23;16.50;99.90
74384;DHT22;62824;52.994;-3.936;2023-09-12T11:37:51;16.50;99.90
74384;DHT22;62824;52.994;-3.936;2023-09-12T11:40:22;16.50;99.90
74384;DHT22;62824;52.994;-3.936;2023-09-12T11:42:48;16.60;99.90
74384;DHT22;62824;52.994;-3.936;2023-09-12T11:45:18;16.50;99.90
74384;DHT22;62824;52.994;-3.936;2023-09-12T11:47:46;16.30;99.90
74384;DHT22;62824;52.994;-3.936;2023-09-12T11:50:32;16.10;99.90
74384;DHT22;62824;52.994;-3.936;2023-09-12T11:53:11;16.00;99.90
74384;DHT22;62824;52.994;-3.936;2023-09-12T11:55:45;15.80;99.90
74384;DHT22;62824;52.994;-3.936;2023-09-12T11:58:13;15.70;99.90
74384;DHT22;62824;52.994;-3.936;2023-09-12T12:00:48;15.50;99.90
74384;DHT22;62824;52.994;-3.936;2023-09-12T12:03:15;15.50;99.90
74384;DHT22;62824;52.994;-3.936;2023-09-12T12:05:41;15.40;99.90
74384;DHT22;62824;52.994;-3.936;2023-09-12T12:08:10;15.40;99.90
74384;DHT22;62824;52.994;-3.936;2023-09-12T12:10:37;15.40;99.90
74384;DHT22;62824;52.994;-3.936;2023-09-12T12:13:05;15.70;99.90
74384;DHT22;62824;52.994;-3.936;2023-09-12T12:15:31;15.70;99.90
74384;DHT22;62824;52.994;-3.936;2023-09-12T12:17:57;15.70;99.90
74384;DHT22;62824;52.994;-3.936;2023-09-12T12:20:23;15.70;99.90
74384;DHT22;62824;52.994;-3.936;2023-09-12T12:22:49;15.80;99.90
74384;DHT22;62824;52.994;-3.936;2023-09-12T12:25:17;15.50;99.90
74384;DHT22;62824;52.994;-3.936;2023-09-12T12:27:43;15.50;99.90
74384;DHT22;62824;52.994;-3.936;2023-09-12T12:30:11;15.50;99.90
74384;DHT22;62824;52.994;-3.936;2023-09-12T12:32:41;15.90;99.90
74384;DHT22;62824;52.994;-3.936;2023-09-12T12:35:08;16.20;99.90
74384;DHT22;62824;52.994;-3.936;2023-09-12T12:37:36;16.10;99.90
74384;DHT22;62824;52.994;-3.936;2023-09-12T12:40:02;16.00;99.90
74384;DHT22;62824;52.994;-3.936;2023-09-12T12:42:38;16.20;99.90
74384;DHT22;62824;52.994;-3.936;2023-09-12T12:45:21;16.30;99.90
74384;DHT22;62824;52.994;-3.936;2023-09-12T12:47:55;16.00;99.90
74384;DHT22;62824;52.994;-3.936;2023-09-12T12:50:21;16.00;99.90
74384;DHT22;62824;52.994;-3.936;2023-09-12T12:52:48;16.50;99.90
74384;DHT22;62824;52.994;-3.936;2023-09-12T12:55:15;17.10;99.90
74384;DHT22;62824;52.994;-3.936;2023-09-12T12:57:43;17.10;99.90
74384;DHT22;62824;52.994;-3.936;2023-09-12T13:00:14;16.60;99.90
74384;DHT22;62824;52.994;-3.936;2023-09-12T13:02:44;16.40;99.90
74384;DHT22;62824;52.994;-3.936;2023-09-12T13:05:27;16.00;99.90
74384;DHT22;62824;52.994;-3.936;2023-09-12T13:07:54;16.20;99.90
74384;DHT22;62824;52.994;-3.936;2023-09-12T13:10:20;16.50;99.90
74384;DHT22;62824;52.994;-3.936;2023-09-12T13:12:47;16.50;99.90
74384;DHT22;62824;52.994;-3.936;2023-09-12T13:15:13;16.60;99.90
74384;DHT22;62824;52.994;-3.936;2023-09-12T13:17:41;16.60;99.90
74384;DHT22;62824;52.994;-3.936;2023-09-12T13:20:07;16.50;99.90
74384;DHT22;62824;52.994;-3.936;2023-09-12T13:22:36;16.30;99.90
74384;DHT22;62824;52.994;-3.936;2023-09-12T13:25:03;16.40;99.90
74384;DHT22;62824;52.994;-3.936;2023-09-12T13:27:29;16.50;99.90
74384;DHT22;62824;52.994;-3.936;2023-09-12T13:29:55;16.60;99.90
74384;DHT22;62824;52.994;-3.936;2023-09-12T13:32:21;16.80;99.90
74384;DHT22;62824;52.994;-3.936;2023-09-12T13:34:47;16.90;99.90
74384;DHT22;62824;52.994;-3.936;2023-09-12T13:37:12;16.70;99.90
74384;DHT22;62824;52.994;-3.936;2023-09-12T13:39:38;16.50;99.90
74384;DHT22;62824;52.994;-3.936;2023-09-12T13:42:06;16.40;99.90
74384;DHT22;62824;52.994;-3.936;2023-09-12T13:44:33;16.30;99.90
74384;DHT22;62824;52.994;-3.936;2023-09-12T13:46:59;16.30;99.90
74384;DHT22;62824;52.994;-3.936;2023-09-12T13:49:25;16.10;99.90
74384;DHT22;62824;52.994;-3.936;2023-09-12T13:51:51;16.10;99.90
74384;DHT22;62824;52.994;-3.936;2023-09-12T13:54:17;16.20;99.90
74384;DHT22;62824;52.994;-3.936;2023-09-12T13:56:43;16.30;99.90
74384;DHT22;62824;52.994;-3.936;2023-09-12T13:59:09;16.40;99.90
74384;DHT22;62824;52.994;-3.936;2023-09-12T14:01:35;16.40;99.90
74384;DHT22;62824;52.994;-3.936;2023-09-12T14:04:02;16.40;99.90
74384;DHT22;62824;52.994;-3.936;2023-09-12T14:06:28;16.40;99.90
74384;DHT22;62824;52.994;-3.936;2023-09-12T14:08:54;16.50;99.90
74384;DHT22;62824;52.994;-3.936;2023-09-12T14:11:19;16.50;99.90
74384;DHT22;62824;52.994;-3.936;2023-09-12T14:13:47;16.50;99.90
74384;DHT22;62824;52.994;-3.936;2023-09-12T14:16:13;16.50;99.90
74384;DHT22;62824;52.994;-3.936;2023-09-12T14:18:39;16.50;99.90
74384;DHT22;62824;52.994;-3.936;2023-09-12T14:21:05;16.40;99.90
74384;DHT22;62824;52.994;-3.936;2023-09-12T14:23:30;16.40;99.90
74384;DHT22;62824;52.994;-3.936;2023-09-12T14:25:56;16.30;99.90
74384;DHT22;62824;52.994;-3.936;2023-09-12T14:28:22;16.30;99.90
74384;DHT22;62824;52.994;-3.936;2023-09-12T14:30:48;16.30;99.90
74384;DHT22;62824;52.994;-3.936;2023-09-12T14:33:15;16.20;99.90
74384;DHT22;62824;52.994;-3.936;2023-09-12T14:35:43;16.20;99.90
74384;DHT22;62824;52.994;-3.936;2023-09-12T14:38:09;16.20;99.90
74384;DHT22;62824;52.994;-3.936;2023-09-12T14:40:34;16.10;99.90
74384;DHT22;62824;52.994;-3.936;2023-09-12T14:43:00;16.10;99.90
74384;DHT22;62824;52.994;-3.936;2023-09-12T14:45:29;16.00;99.90
74384;DHT22;62824;52.994;-3.936;2023-09-12T14:47:56;15.90;99.90
74384;DHT22;62824;52.994;-3.936;2023-09-12T14:50:23;15.80;99.90
74384;DHT22;62824;52.994;-3.936;2023-09-12T14:52:50;15.80;99.90
74384;DHT22;62824;52.994;-3.936;2023-09-12T14:55:16;15.70;99.90
74384;DHT22;62824;52.994;-3.936;2023-09-12T14:57:42;15.70;99.90
74384;DHT22;62824;52.994;-3.936;2023-09-12T15:00:09;15.60;99.90
74384;DHT22;62824;52.994;-3.936;2023-09-12T15:02:37;15.60;99.90
74384;DHT22;62824;52.994;-3.936;2023-09-12T15:05:07;15.60;99.90
74384;DHT22;62824;52.994;-3.936;2023-09-12T15:07:33;15.70;99.90
74384;DHT22;62824;52.994;-3.936;2023-09-12T15:10:01;15.70;99.90
74384;DHT22;62824;52.994;-3.936;2023-09-12T15:12:27;15.80;99.90
74384;DHT22;62824;52.994;-3.936;2023-09-12T15:14:53;15.80;99.90
74384;DHT22;62824;52.994;-3.936;2023-09-12T15:17:19;15.70;99.90
74384;DHT22;62824;52.994;-3.936;2023-09-12T15:19:45;15.70;99.90
74384;DHT22;62824;52.994;-3.936;2023-09-12T15:22:10;15.70;99.90
74384;DHT22;62824;52.994;-3.936;2023-09-12T15:24:36;15.70;99.90
74384;DHT22;62824;52.994;-3.936;2023-09-12T15:27:02;15.60;99.90
74384;DHT22;62824;52.994;-3.936;2023-09-12T15:29:30;15.60;99.90
74384;DHT22;62824;52.994;-3.936;2023-09-12T15:31:56;15.60;99.90
74384;DHT22;62824;52.994;-3.936;2023-09-12T15:34:23;15.60;99.90
74384;DHT22;62824;52.994;-3.936;2023-09-12T15:36:49;15.60;99.90